Time;durP1;ratioP1;P1;durP2;ratioP2;P2;SDS_P1;SDS_P2;PMS_P1;PMS_P2;Temp;Humidity;BMP_temperature;BMP_pressure;BME280_temperature;BME280_humidity;BME280_pressure;Samples;Min_cycle;Max_cycle;Signal;HPM_P1;HPM_P2
2024/01/08 00:00:28;;;;;;;31.30;20.40;;;;;;;-6.14;81.91;101123.68;178673;1257;58225;-81
2024/01/08 00:04:52;;;;;;;33.10;19.10;;;;;;;-6.12;82.67;101128.70;179172;1256;44641;-80
2024/01/08 00:08:55;;;;;;;27.90;19.80;;;;;;;-6.13;81.74;101131.11;177914;1256;45988;-82
2024/01/08 00:12:58;;;;;;;30.90;16.10;;;;;;;-6.19;82.60;101131.64;178624;1256;46141;-82
2024/01/08 00:17:01;;;;;;;29.70;16.30;;;;;;;-6.17;83.15;101130.77;178931;1256;44052;-81
2024/01/08 00:21:04;;;;;;;36.50;22.90;;;;;;;-6.10;83.97;101133.00;180578;1257;59615;-81
2024/01/08 00:25:08;;;;;;;31.50;20.40;;;;;;;-6.07;82.81;101132.67;180005;1260;45990;-82
2024/01/08 00:29:11;;;;;;;34.90;18.20;;;;;;;-6.09;82.73;101130.95;180523;1257;45932;-82
2024/01/08 00:33:14;;;;;;;34.50;19.00;;;;;;;-6.19;82.89;101136.98;177769;1256;46130;-82
2024/01/08 00:37:18;;;;;;;39.80;20.40;;;;;;;-6.28;83.59;101143.36;177547;1258;46888;-82
2024/01/08 00:41:21;;;;;;;29.90;17.80;;;;;;;-6.31;84.17;101150.25;178279;1257;58415;-82
2024/01/08 00:45:24;;;;;;;40.20;24.20;;;;;;;-6.31;82.51;101151.98;178228;1257;46066;-81
2024/01/08 00:49:27;;;;;;;34.60;20.40;;;;;;;-6.36;80.99;101156.11;177289;1257;46121;-81
2024/01/08 00:53:31;;;;;;;32.80;20.60;;;;;;;-6.42;82.23;101160.77;179398;1257;46584;-81
2024/01/08 00:57:34;;;;;;;39.40;21.80;;;;;;;-6.45;82.71;101160.09;176752;1258;44830;-81
2024/01/08 01:01:37;;;;;;;27.10;18.40;;;;;;;-6.51;82.31;101173.00;177447;1257;58645;-81
2024/01/08 01:05:40;;;;;;;42.70;20.50;;;;;;;-6.55;82.01;101177.83;176664;1257;46171;-81
2024/01/08 01:09:43;;;;;;;37.50;20.00;;;;;;;-6.55;82.22;101180.23;177321;1258;46056;-81
2024/01/08 01:13:47;;;;;;;31.80;18.20;;;;;;;-6.57;79.68;101184.55;177311;1257;46097;-81
2024/01/08 01:17:50;;;;;;;31.00;18.10;;;;;;;-6.64;79.07;101186.77;177358;1257;46031;-81
2024/01/08 01:21:53;;;;;;;25.20;18.20;;;;;;;-6.75;78.08;101195.34;177721;1257;59252;-81
2024/01/08 01:25:56;;;;;;;28.50;18.00;;;;;;;-6.79;78.26;101191.88;177478;1257;46448;-79
2024/01/08 01:30:01;;;;;;;26.80;21.00;;;;;;;-6.80;77.75;101189.45;178232;1257;46098;-81
2024/01/08 01:34:04;;;;;;;36.50;18.40;;;;;;;-6.71;78.25;101192.95;178981;1258;46114;-82
2024/01/08 01:38:07;;;;;;;35.20;19.90;;;;;;;-6.68;78.81;101192.61;178131;1257;45998;-81
2024/01/08 01:42:11;;;;;;;37.30;18.80;;;;;;;-6.70;78.39;101202.79;178755;1257;58020;-82
2024/01/08 01:46:42;;;;;;;23.80;18.30;;;;;;;-6.72;78.99;101191.55;179246;1258;46012;-82
2024/01/08 01:50:45;;;;;;;24.00;15.30;;;;;;;-6.69;78.53;101192.95;178888;1258;45984;-81
2024/01/08 01:54:51;;;;;;;30.00;17.70;;;;;;;-6.64;79.53;101192.11;178762;1257;45246;-81
2024/01/08 01:58:55;;;;;;;34.60;20.10;;;;;;;-6.63;79.25;101196.61;180222;1257;43902;-80
2024/01/08 02:03:00;;;;;;;34.70;23.10;;;;;;;-6.65;79.24;101198.32;178522;1258;60294;-81
2024/01/08 02:07:05;;;;;;;33.20;20.00;;;;;;;-6.72;79.88;101206.75;178644;1257;46057;-81
2024/01/08 02:11:08;;;;;;;35.00;22.20;;;;;;;-6.80;79.54;101212.91;178236;1257;45261;-81
2024/01/08 02:15:11;;;;;;;32.60;17.30;;;;;;;-6.92;80.18;101210.10;178767;1256;45984;-81
2024/01/08 02:19:15;;;;;;;29.60;18.30;;;;;;;-6.97;80.60;101216.97;177828;1256;46052;-82
2024/01/08 02:23:18;;;;;;;36.10;19.10;;;;;;;-7.01;80.66;101220.05;179392;1256;59340;-81
2024/01/08 02:27:21;;;;;;;29.60;20.40;;;;;;;-7.11;82.10;101224.82;179506;1256;46016;-81
2024/01/08 02:31:25;;;;;;;28.50;16.70;;;;;;;-7.23;82.48;101228.70;181119;1256;43751;-82
2024/01/08 02:35:28;;;;;;;32.20;18.10;;;;;;;-7.23;81.90;101235.44;179825;1256;46107;-81
2024/01/08 02:39:31;;;;;;;35.80;22.20;;;;;;;-7.11;81.86;101230.85;179810;1256;44042;-82
2024/01/08 02:43:34;;;;;;;31.40;18.50;;;;;;;-7.05;82.06;101235.03;179602;1256;58540;-82
2024/01/08 02:47:40;;;;;;;30.90;19.60;;;;;;;-7.05;81.44;101237.27;178463;1256;46056;-81
2024/01/08 02:51:43;;;;;;;26.90;16.50;;;;;;;-7.08;80.89;101237.77;177727;1256;45911;-81
2024/01/08 02:55:46;;;;;;;30.00;17.80;;;;;;;-7.14;81.03;101243.59;178463;1259;45895;-81
2024/01/08 02:59:49;;;;;;;33.20;18.40;;;;;;;-7.17;80.55;101254.77;178118;1256;46024;-82
2024/01/08 03:03:52;;;;;;;37.00;20.50;;;;;;;-7.13;81.77;101254.63;177010;1259;58579;-82
2024/01/08 03:07:56;;;;;;;34.80;20.50;;;;;;;-7.13;81.13;101255.33;177797;1256;46452;-82
2024/01/08 03:11:59;;;;;;;39.20;21.90;;;;;;;-7.14;81.69;101259.29;178441;1256;46031;-82
2024/01/08 03:16:03;;;;;;;29.10;15.30;;;;;;;-7.23;80.74;101265.77;177221;1256;46002;-81
2024/01/08 03:20:08;;;;;;;34.40;17.60;;;;;;;-7.27;81.27;101273.31;178599;1257;46027;-82
2024/01/08 03:24:12;;;;;;;39.60;19.50;;;;;;;-7.30;80.92;101277.95;179663;1256;58168;-81
2024/01/08 03:28:15;;;;;;;34.70;22.20;;;;;;;-7.28;80.49;101286.24;179648;1258;46560;-83
2024/01/08 03:32:19;;;;;;;36.20;20.40;;;;;;;-7.27;80.47;101287.98;178352;1258;46148;-82
2024/01/08 03:36:22;;;;;;;35.90;20.10;;;;;;;-7.33;80.05;101295.34;178242;1256;44163;-82
2024/01/08 03:40:26;;;;;;;24.80;16.10;;;;;;;-7.29;80.37;101299.34;178382;1256;46059;-82
2024/01/08 03:44:29;;;;;;;35.50;19.70;;;;;;;-7.21;81.18;101306.81;178499;1256;57351;-81
2024/01/08 03:48:32;;;;;;;35.80;20.90;;;;;;;-7.16;81.44;101303.25;178313;1256;46067;-82
2024/01/08 03:52:36;;;;;;;45.60;25.00;;;;;;;-7.18;81.04;101299.25;178121;1256;46146;-82
2024/01/08 03:56:40;;;;;;;51.50;25.30;;;;;;;-7.22;82.23;101302.84;180515;1256;44403;-82
2024/01/08 04:00:43;;;;;;;40.00;20.70;;;;;;;-7.23;82.71;101305.95;180110;1256;43938;-83
2024/01/08 04:04:46;;;;;;;39.80;23.20;;;;;;;-7.25;81.99;101300.41;178879;1256;57340;-83
2024/01/08 04:08:50;;;;;;;46.30;26.10;;;;;;;-7.18;82.89;101307.87;179110;1256;46112;-82
2024/01/08 04:12:54;;;;;;;35.80;22.10;;;;;;;-7.09;82.72;101308.98;177568;1256;46002;-83
2024/01/08 04:16:57;;;;;;;42.40;22.20;;;;;;;-7.06;82.46;101315.23;177977;1258;46026;-83
2024/01/08 04:21:02;;;;;;;38.60;20.80;;;;;;;-7.07;82.74;101322.27;178419;1256;46408;-87
2024/01/08 04:25:05;;;;;;;39.70;23.30;;;;;;;-7.15;82.77;101327.89;178674;1256;57399;-87
2024/01/08 04:29:10;;;;;;;40.20;24.00;;;;;;;-7.10;83.32;101328.95;181138;1256;43916;-86
2024/01/08 04:33:13;;;;;;;41.30;22.10;;;;;;;-7.11;83.67;101323.96;180207;1256;44152;-86
2024/01/08 04:37:17;;;;;;;35.50;21.20;;;;;;;-7.13;83.26;101330.33;180828;1256;44157;-84
2024/01/08 04:41:20;;;;;;;35.10;20.50;;;;;;;-7.24;83.15;101334.04;178138;1256;46032;-85
2024/01/08 04:45:24;;;;;;;27.60;17.00;;;;;;;-7.27;83.72;101343.30;177916;1256;58215;-87
2024/01/08 04:49:27;;;;;;;30.50;19.30;;;;;;;-7.20;83.34;101345.45;177985;1259;46029;-86
2024/01/08 04:53:36;;;;;;;36.20;17.30;;;;;;;-7.20;83.28;101356.80;178055;1256;46036;-86
2024/01/08 04:57:40;;;;;;;40.80;21.50;;;;;;;-7.20;83.16;101358.55;177480;1258;46419;-86
2024/01/08 05:01:44;;;;;;;38.00;21.70;;;;;;;-7.27;83.33;101368.48;178680;1260;46111;-87
2024/01/08 05:05:47;;;;;;;38.10;21.20;;;;;;;-7.48;82.21;101377.23;178175;1256;59553;-84
2024/01/08 05:09:51;;;;;;;28.10;15.90;;;;;;;-7.63;82.42;101384.66;179187;1256;45981;-85
2024/01/08 05:13:54;;;;;;;34.00;20.30;;;;;;;-7.68;82.38;101394.92;179379;1256;251038;-85
2024/01/08 05:17:57;;;;;;;34.80;21.30;;;;;;;-7.73;82.27;101390.74;177864;1256;45963;-85
2024/01/08 05:22:01;;;;;;;39.90;21.40;;;;;;;-7.81;81.94;101403.23;178426;1259;46209;-84
2024/01/08 05:26:04;;;;;;;39.80;20.80;;;;;;;-7.92;81.30;101406.54;177819;1260;59865;-85
2024/01/08 05:30:08;;;;;;;28.40;16.60;;;;;;;-8.04;82.01;101416.37;178177;1256;46007;-83
2024/01/08 05:34:12;;;;;;;43.40;19.20;;;;;;;-8.09;81.31;101419.58;177339;1256;45978;-85
2024/01/08 05:38:16;;;;;;;34.40;19.30;;;;;;;-8.11;81.15;101423.70;178791;1256;45797;-86
2024/01/08 05:42:19;;;;;;;41.00;22.40;;;;;;;-8.12;81.80;101429.02;177436;1256;46170;-86
2024/01/08 05:46:22;;;;;;;46.70;22.60;;;;;;;-8.17;80.97;101429.63;178224;1260;58201;-86
2024/01/08 05:50:27;;;;;;;30.00;20.10;;;;;;;-8.24;80.93;101434.88;178672;1256;44556;-84
2024/01/08 05:54:30;;;;;;;44.00;19.40;;;;;;;-8.31;80.72;101441.31;178283;1258;46085;-85
2024/01/08 05:58:34;;;;;;;34.60;18.60;;;;;;;-8.37;80.31;101445.19;178104;1256;45943;-85
2024/01/08 06:02:37;;;;;;;46.20;26.30;;;;;;;-8.40;80.04;101443.23;178979;1256;45946;-86
2024/01/08 06:06:41;;;;;;;38.60;25.30;;;;;;;-8.43;79.77;101449.05;177741;1256;62589;-86
2024/01/08 06:10:46;;;;;;;30.00;18.80;;;;;;;-8.53;80.18;101455.64;178955;1259;46137;-86
2024/01/08 06:14:50;;;;;;;39.10;22.00;;;;;;;-8.60;80.33;101457.77;178590;1256;46106;-86
2024/01/08 06:18:53;;;;;;;47.00;23.90;;;;;;;-8.65;80.49;101466.80;179408;1259;46019;-85
2024/01/08 06:22:56;;;;;;;37.30;24.10;;;;;;;-8.60;81.23;101471.69;178443;1256;46108;-85
2024/01/08 06:26:59;;;;;;;44.90;23.80;;;;;;;-8.57;80.33;101476.20;178458;1256;57871;-86
2024/01/08 06:31:04;;;;;;;47.60;25.30;;;;;;;-8.61;80.90;101474.77;178938;1256;46970;-86
2024/01/08 06:35:10;;;;;;;39.00;24.10;;;;;;;-8.62;81.95;101481.13;179082;1256;44138;-86
2024/01/08 06:39:13;;;;;;;34.80;21.10;;;;;;;-8.64;81.01;101488.33;179471;1256;45936;-85
2024/01/08 06:43:17;;;;;;;42.60;23.50;;;;;;;-8.64;80.61;101495.20;177465;1256;45990;-86
2024/01/08 06:47:20;;;;;;;49.00;27.00;;;;;;;-8.62;81.05;101502.81;178588;1256;58239;-86
2024/01/08 06:51:24;;;;;;;43.90;24.00;;;;;;;-8.63;80.72;101504.86;178613;1256;45991;-84
2024/01/08 06:55:27;;;;;;;47.10;25.10;;;;;;;-8.69;81.32;101499.41;179266;1256;46214;-85
2024/01/08 06:59:31;;;;;;;38.00;21.70;;;;;;;-8.68;82.11;101506.83;178362;1256;44690;-85
2024/01/08 07:03:35;;;;;;;43.80;22.10;;;;;;;-8.65;81.33;101515.64;178296;1256;46097;-85
2024/01/08 07:07:39;;;;;;;46.70;27.30;;;;;;;-8.60;80.64;101518.48;177926;1256;59530;-85
2024/01/08 07:11:43;;;;;;;51.80;25.30;;;;;;;-8.56;80.53;101523.02;178009;1256;46090;-85
2024/01/08 07:15:48;;;;;;;44.40;21.60;;;;;;;-8.58;80.02;101526.09;179056;1256;44130;-86
2024/01/08 07:19:52;;;;;;;37.10;24.00;;;;;;;-8.61;80.29;101535.34;178847;1256;46082;-84
2024/01/08 07:23:55;;;;;;;49.40;22.00;;;;;;;-8.57;80.47;101540.39;177678;1256;46088;-86
2024/01/08 07:27:59;;;;;;;40.50;23.80;;;;;;;-8.49;80.77;101536.54;177526;1256;57914;-86
2024/01/08 07:32:02;;;;;;;41.20;25.50;;;;;;;-8.45;80.04;101546.76;177341;1256;46251;-85
2024/01/08 07:36:06;;;;;;;50.60;24.20;;;;;;;-8.47;80.33;101546.70;177555;1256;46118;-85
2024/01/08 07:40:09;;;;;;;35.60;22.40;;;;;;;-8.48;80.58;101552.20;177473;1256;46130;-83
2024/01/08 07:44:14;;;;;;;49.90;24.70;;;;;;;-8.41;81.10;101557.49;178222;1256;46106;-85
2024/01/08 07:48:17;;;;;;;39.20;23.30;;;;;;;-8.34;80.32;101562.08;178139;1256;59779;-85
2024/01/08 07:52:21;;;;;;;40.00;24.70;;;;;;;-8.30;80.07;101565.58;177715;1256;46002;-85
2024/01/08 07:56:37;;;;;;;35.80;21.70;;;;;;;-8.31;79.21;101565.23;177795;1256;45962;-87
2024/01/08 08:00:55;;;;;;;28.80;19.30;;;;;;;-8.36;79.35;101574.77;180707;1260;46913;-85
2024/01/08 08:04:58;;;;;;;29.90;21.40;;;;;;;-8.37;79.36;101585.08;178396;1257;46120;-85
2024/01/08 08:09:03;;;;;;;37.30;22.00;;;;;;;-8.35;79.30;101588.73;177987;1257;58181;-85
2024/01/08 08:13:06;;;;;;;43.00;24.10;;;;;;;-8.29;79.31;101598.65;178272;1256;46046;-86
2024/01/08 08:17:09;;;;;;;46.90;26.70;;;;;;;-8.21;78.37;101599.98;177766;1261;46126;-86
2024/01/08 08:21:13;;;;;;;40.70;21.10;;;;;;;-8.17;79.01;101605.56;178229;1259;46165;-86
2024/01/08 08:25:16;;;;;;;44.30;23.20;;;;;;;-8.17;79.94;101617.45;180021;1257;44209;-86
2024/01/08 08:29:19;;;;;;;38.80;20.50;;;;;;;-8.15;79.97;101619.54;179384;1256;59542;-86
2024/01/08 08:33:22;;;;;;;43.20;24.80;;;;;;;-8.02;79.70;101620.25;177703;1256;46124;-85
2024/01/08 08:37:28;;;;;;;49.30;25.30;;;;;;;-7.95;79.76;101629.15;177635;1256;46099;-86
2024/01/08 08:41:51;;;;;;;41.40;23.10;;;;;;;-7.98;79.08;101639.10;179230;1256;46045;-86
2024/01/08 08:45:54;;;;;;;37.90;23.70;;;;;;;-8.08;78.39;101652.02;179558;1256;46126;-86
2024/01/08 08:49:58;;;;;;;34.60;23.50;;;;;;;-8.13;78.04;101652.45;179888;1256;58247;-87
2024/01/08 08:54:03;;;;;;;38.30;19.40;;;;;;;-8.10;78.08;101659.21;177986;1260;46059;-85
2024/01/08 08:58:09;;;;;;;43.60;23.20;;;;;;;-8.05;77.95;101660.50;180243;1256;44711;-85
2024/01/08 09:02:12;;;;;;;48.80;24.40;;;;;;;-8.00;78.31;101666.80;180480;1256;44159;-84
2024/01/08 09:06:16;;;;;;;47.80;26.50;;;;;;;-7.98;77.32;101672.67;178592;1256;46117;-86
2024/01/08 09:10:19;;;;;;;39.80;22.80;;;;;;;-7.97;76.24;101670.63;178910;1256;57944;-86
2024/01/08 09:14:22;;;;;;;37.50;19.70;;;;;;;-7.92;77.57;101674.67;177903;1256;46036;-83
2024/01/08 09:18:26;;;;;;;45.10;25.70;;;;;;;-7.81;78.11;101672.77;178397;1256;46094;-84
2024/01/08 09:22:30;;;;;;;45.50;22.90;;;;;;;-7.69;77.03;101680.38;178928;1256;44142;-84
2024/01/08 09:26:34;;;;;;;57.70;27.20;;;;;;;-7.62;76.28;101682.72;178792;1256;45977;-83
2024/01/08 09:30:37;;;;;;;38.50;22.30;;;;;;;-7.63;75.91;101686.70;178536;1256;57046;-83
2024/01/08 09:34:41;;;;;;;29.90;16.80;;;;;;;-7.64;75.44;101685.83;178827;1256;46080;-84
2024/01/08 09:38:46;;;;;;;40.20;22.90;;;;;;;-7.55;75.69;101691.29;178055;1256;44242;-84
2024/01/08 09:42:58;;;;;;;44.90;23.70;;;;;;;-7.49;75.85;101696.36;178118;1256;46001;-85
2024/01/08 09:47:03;;;;;;;41.20;25.70;;;;;;;-7.47;75.78;101697.79;178881;1256;45952;-85
2024/01/08 09:51:07;;;;;;;39.90;21.90;;;;;;;-7.43;75.35;101697.33;177633;1256;59523;-84
2024/01/08 09:55:11;;;;;;;55.90;23.50;;;;;;;-7.54;75.80;101699.91;177897;1256;44463;-86
2024/01/08 09:59:15;;;;;;;43.30;20.60;;;;;;;-7.54;75.89;101703.54;177662;1256;46170;-86
2024/01/08 10:03:19;;;;;;;38.50;22.80;;;;;;;-7.51;75.80;101703.24;177670;1256;45991;-85
2024/01/08 10:07:24;;;;;;;48.10;25.80;;;;;;;-7.39;74.85;101702.05;179094;1260;46027;-86
2024/01/08 10:11:28;;;;;;;46.80;25.60;;;;;;;-7.27;74.93;101699.64;177702;1256;57977;-86
2024/01/08 10:15:31;;;;;;;43.10;23.80;;;;;;;-7.23;75.45;101700.73;178023;1256;46070;-85
2024/01/08 10:19:34;;;;;;;34.00;20.80;;;;;;;-7.31;74.98;101702.69;178208;1258;46069;-85
2024/01/08 10:23:38;;;;;;;36.40;20.80;;;;;;;-7.39;74.93;101701.00;177647;1256;46008;-85
2024/01/08 10:27:42;;;;;;;47.00;23.80;;;;;;;-7.47;75.09;101699.86;178373;1257;44692;-86
2024/01/08 10:31:45;;;;;;;40.50;22.40;;;;;;;-7.29;75.49;101698.39;177706;1256;59128;-85
2024/01/08 10:35:49;;;;;;;38.70;21.90;;;;;;;-7.07;74.96;101706.66;177487;1262;45984;-86
2024/01/08 10:39:54;;;;;;;47.20;28.70;;;;;;;-6.90;74.84;101706.02;177638;1260;46162;-86
2024/01/08 10:43:57;;;;;;;46.90;29.20;;;;;;;-6.80;75.37;101707.70;177667;1256;46217;-85
2024/01/08 10:48:20;;;;;;;42.90;21.50;;;;;;;-6.84;73.52;101703.33;177743;1256;45962;-86
2024/01/08 10:52:24;;;;;;;38.10;20.80;;;;;;;-6.95;74.07;101694.55;178344;1256;58247;-86
2024/01/08 10:56:31;;;;;;;47.70;25.40;;;;;;;-7.00;75.62;101699.50;178942;1260;45984;-86
2024/01/08 11:00:35;;;;;;;46.30;25.40;;;;;;;-6.92;75.97;101699.08;178531;1260;46108;-84
2024/01/08 11:04:41;;;;;;;59.10;26.70;;;;;;;-6.78;74.50;101706.16;177957;1256;46018;-85
2024/01/08 11:08:44;;;;;;;50.10;25.30;;;;;;;-6.71;74.39;101710.91;179200;1260;46274;-85
2024/01/08 11:12:55;;;;;;;35.80;21.70;;;;;;;-6.73;73.56;101710.54;178257;1256;58599;-85
2024/01/08 11:16:58;;;;;;;38.80;23.30;;;;;;;-6.70;73.65;101717.31;178667;1256;46071;-85
2024/01/08 11:21:03;;;;;;;51.00;28.10;;;;;;;-6.64;73.76;101714.63;177923;1258;46264;-86
2024/01/08 11:25:07;;;;;;;46.90;26.70;;;;;;;-6.63;73.32;101716.88;177828;1262;46563;-85
2024/01/08 11:29:11;;;;;;;42.60;23.00;;;;;;;-6.56;73.40;101717.30;178038;1257;45083;-85
2024/01/08 11:33:49;;;;;;;54.00;23.50;;;;;;;-6.59;73.94;101720.20;178628;1261;59331;-85
2024/01/08 11:38:13;;;;;;;39.20;22.20;;;;;;;-6.50;74.16;101721.17;177676;1258;45927;-85
2024/01/08 11:42:18;;;;;;;34.30;22.10;;;;;;;-6.56;73.45;101720.24;177465;1258;45915;-84
2024/01/08 11:46:21;;;;;;;41.00;22.30;;;;;;;-6.55;73.50;101718.17;178366;1257;46101;-85
2024/01/08 11:50:25;;;;;;;46.60;26.50;;;;;;;-6.59;73.85;101713.14;178044;1262;46020;-86
2024/01/08 11:54:29;;;;;;;38.10;21.40;;;;;;;-6.62;74.19;101718.95;179078;1257;58422;-86
2024/01/08 11:58:32;;;;;;;41.80;25.20;;;;;;;-6.63;74.35;101713.95;177990;1258;46120;-84
2024/01/08 12:02:38;;;;;;;45.60;23.00;;;;;;;-6.51;74.04;101718.58;178757;1257;45964;-86
2024/01/08 12:06:41;;;;;;;37.40;22.40;;;;;;;-6.35;74.07;101717.36;177849;1260;46118;-86
2024/01/08 12:10:53;;;;;;;48.00;24.90;;;;;;;-6.32;73.26;101714.46;178196;1261;46034;-86
2024/01/08 12:14:56;;;;;;;50.30;24.80;;;;;;;-6.40;73.58;101712.84;178122;1261;59581;-85
2024/01/08 12:18:59;;;;;;;43.90;26.50;;;;;;;-6.32;73.67;101717.58;177609;1261;46077;-86
2024/01/08 12:23:03;;;;;;;42.20;21.40;;;;;;;-6.34;73.41;101712.38;177401;1259;46029;-85
2024/01/08 12:27:07;;;;;;;37.50;18.80;;;;;;;-6.33;73.66;101712.73;177515;1260;46340;-86
2024/01/08 12:31:11;;;;;;;44.50;23.90;;;;;;;-6.38;73.06;101716.66;177421;1256;46033;-87
2024/01/08 12:35:15;;;;;;;50.70;25.10;;;;;;;-6.23;72.88;101714.23;178409;1257;58141;-85
2024/01/08 12:39:21;;;;;;;49.40;25.50;;;;;;;-6.13;73.76;101716.75;177438;1257;46121;-86
2024/01/08 12:43:25;;;;;;;45.90;25.60;;;;;;;-6.07;72.91;101725.10;178148;1257;46126;-86
2024/01/08 12:47:28;;;;;;;47.70;26.10;;;;;;;-6.05;73.27;101725.64;177841;1260;46456;-86
2024/01/08 12:51:33;;;;;;;40.30;22.70;;;;;;;-6.12;73.83;101726.78;179029;1256;45997;-86
2024/01/08 12:55:36;;;;;;;33.50;19.70;;;;;;;-6.14;73.88;101734.17;178825;1260;57057;-85
2024/01/08 12:59:51;;;;;;;42.60;22.40;;;;;;;-6.10;74.17;101731.63;177425;1256;46105;-86
2024/01/08 13:03:54;;;;;;;40.70;25.00;;;;;;;-5.97;73.62;101730.18;178316;1257;46242;-85
2024/01/08 13:07:58;;;;;;;45.70;26.60;;;;;;;-5.93;73.44;101734.36;178506;1257;45991;-87
2024/01/08 13:12:02;;;;;;;41.60;24.30;;;;;;;-5.95;73.41;101744.72;178888;1260;45371;-85
2024/01/08 13:16:06;;;;;;;45.20;25.20;;;;;;;-6.11;73.63;101750.44;177779;1257;59529;-86
2024/01/08 13:20:11;;;;;;;39.70;25.10;;;;;;;-6.19;74.07;101752.09;177315;1257;46004;-86
2024/01/08 13:24:28;;;;;;;40.00;25.10;;;;;;;-6.09;74.18;101758.76;177455;1260;46233;-86
2024/01/08 13:28:32;;;;;;;38.20;20.60;;;;;;;-5.95;73.72;101754.73;178056;1256;46066;-86
2024/01/08 13:32:35;;;;;;;43.60;25.40;;;;;;;-5.90;73.65;101756.67;178628;1256;46118;-87
2024/01/08 13:36:38;;;;;;;54.20;27.40;;;;;;;-5.88;73.46;101765.86;178168;1259;58221;-86
2024/01/08 13:40:42;;;;;;;41.30;25.40;;;;;;;-5.86;74.27;101768.47;177881;1256;46024;-87
2024/01/08 13:44:45;;;;;;;36.60;22.80;;;;;;;-5.85;73.72;101771.42;179040;1257;46034;-86
2024/01/08 13:48:48;;;;;;;36.50;21.00;;;;;;;-5.84;73.16;101774.36;179178;1257;46223;-85
2024/01/08 13:52:52;;;;;;;36.60;23.50;;;;;;;-5.85;73.46;101783.86;178054;1257;46160;-82
2024/01/08 13:56:56;;;;;;;51.40;29.10;;;;;;;-5.81;73.36;101792.19;179518;1257;59568;-83
2024/01/08 14:00:59;;;;;;;47.20;24.40;;;;;;;-5.74;73.29;101799.88;179851;1258;44927;-83
2024/01/08 14:05:03;;;;;;;49.20;24.50;;;;;;;-5.73;73.73;101802.64;179241;1256;46031;-84
2024/01/08 14:09:06;;;;;;;40.00;26.50;;;;;;;-5.77;73.30;101807.10;178640;1258;46020;-83
2024/01/08 14:13:09;;;;;;;30.00;20.50;;;;;;;-5.73;73.62;101811.98;179315;1258;44196;-83
2024/01/08 14:17:13;;;;;;;39.90;23.80;;;;;;;-5.65;74.26;101817.41;178645;1257;59277;-82
2024/01/08 14:21:16;;;;;;;37.50;25.30;;;;;;;-5.61;73.13;101826.27;178983;1260;44243;-83
2024/01/08 14:25:20;;;;;;;50.30;28.50;;;;;;;-5.56;73.22;101826.50;180137;1260;44934;-83
2024/01/08 14:29:23;;;;;;;37.20;24.70;;;;;;;-5.62;73.22;101834.39;179638;1257;46153;-84
2024/01/08 14:33:26;;;;;;;47.80;25.50;;;;;;;-5.65;73.66;101837.30;180865;1256;43937;-83
2024/01/08 14:37:30;;;;;;;43.20;23.10;;;;;;;-5.73;73.68;101837.20;178154;1257;58304;-83
2024/01/08 14:41:33;;;;;;;33.70;21.50;;;;;;;-5.81;73.76;101837.98;178654;1257;45966;-84
2024/01/08 14:45:36;;;;;;;33.70;22.10;;;;;;;-5.76;73.94;101846.68;178502;1257;45504;-85
2024/01/08 14:49:40;;;;;;;44.70;25.60;;;;;;;-5.72;74.13;101844.98;178602;1257;46045;-84
2024/01/08 14:53:44;;;;;;;42.30;22.00;;;;;;;-5.72;73.92;101850.70;180369;1256;44154;-84
2024/01/08 14:57:48;;;;;;;40.80;23.60;;;;;;;-5.81;73.36;101855.27;179988;1257;58269;-87
2024/01/08 15:01:53;;;;;;;33.80;20.40;;;;;;;-5.87;74.04;101860.73;179188;1258;46141;-83
2024/01/08 15:06:01;;;;;;;32.60;19.60;;;;;;;-5.95;74.77;101869.27;178480;1257;44367;-85
2024/01/08 15:10:07;;;;;;;37.40;21.10;;;;;;;-5.96;75.11;101879.11;178721;1257;45966;-81
2024/01/08 15:14:12;;;;;;;38.60;21.50;;;;;;;-5.95;74.63;101879.30;179746;1257;44255;-85
2024/01/08 15:18:21;;;;;;;37.20;22.30;;;;;;;-5.94;74.28;101883.11;178684;1257;58254;-84
2024/01/08 15:22:24;;;;;;;42.10;21.20;;;;;;;-6.04;73.63;101891.14;179855;1256;43945;-83
2024/01/08 15:26:29;;;;;;;37.70;21.00;;;;;;;-6.10;73.99;101892.63;178551;1257;46070;-85
2024/01/08 15:30:33;;;;;;;28.90;18.00;;;;;;;-6.18;74.20;101902.36;179034;1256;46138;-82
2024/01/08 15:34:36;;;;;;;38.80;20.30;;;;;;;-6.20;74.15;101903.71;178178;1257;46323;-84
2024/01/08 15:38:39;;;;;;;39.40;22.70;;;;;;;-6.19;74.08;101906.30;178463;1257;59559;-84
2024/01/08 15:42:43;;;;;;;40.70;23.80;;;;;;;-6.20;73.86;101910.46;179882;1257;45154;-83
2024/01/08 15:46:46;;;;;;;33.90;19.00;;;;;;;-6.21;73.87;101912.34;180771;1256;44151;-82
2024/01/08 15:50:49;;;;;;;36.40;21.60;;;;;;;-6.29;73.68;101917.23;179236;1257;45910;-84
2024/01/08 15:54:53;;;;;;;35.20;19.50;;;;;;;-6.38;73.56;101921.41;179751;1256;46013;-81
2024/01/08 15:58:57;;;;;;;35.00;22.30;;;;;;;-6.40;73.32;101925.19;181088;1256;57852;-84
2024/01/08 16:03:01;;;;;;;35.10;21.90;;;;;;;-6.37;73.08;101923.84;180178;1257;44133;-84
2024/01/08 16:07:04;;;;;;;44.60;21.00;;;;;;;-6.33;73.30;101935.83;180229;1256;46107;-83
2024/01/08 16:11:08;;;;;;;36.10;19.00;;;;;;;-6.33;72.73;101940.48;178785;1257;46073;-83
2024/01/08 16:15:11;;;;;;;37.80;19.80;;;;;;;-6.42;72.23;101941.04;179841;1256;46048;-82
2024/01/08 16:19:14;;;;;;;27.20;16.10;;;;;;;-6.50;72.72;101940.40;179380;1256;58311;-81
2024/01/08 16:23:17;;;;;;;34.30;18.20;;;;;;;-6.53;72.31;101942.26;179707;1256;46145;-82
2024/01/08 16:27:20;;;;;;;44.20;21.70;;;;;;;-6.48;72.13;101946.65;180469;1256;46200;-82
2024/01/08 16:31:25;;;;;;;41.10;20.30;;;;;;;-6.38;72.67;101950.59;178894;1256;44871;-82
2024/01/08 16:35:28;;;;;;;33.70;19.80;;;;;;;-6.27;72.83;101954.90;177790;1256;46063;-81
2024/01/08 16:39:32;;;;;;;29.10;15.80;;;;;;;-6.22;72.63;101956.70;177843;1257;59246;-81
2024/01/08 16:43:35;;;;;;;29.20;18.60;;;;;;;-6.30;72.23;101960.73;177701;1256;45966;-83
2024/01/08 16:47:38;;;;;;;27.30;17.20;;;;;;;-6.33;72.32;101964.31;180267;1256;46021;-83
2024/01/08 16:51:54;;;;;;;32.10;19.20;;;;;;;-6.28;72.61;101978.38;179524;1256;45989;-83
2024/01/08 16:56:00;;;;;;;34.20;19.00;;;;;;;-6.16;73.12;101978.89;176487;1260;46445;-82
2024/01/08 17:00:03;;;;;;;42.90;18.80;;;;;;;-6.06;72.80;101974.36;177245;1256;58491;-82
2024/01/08 17:04:07;;;;;;;42.80;21.00;;;;;;;-6.00;72.11;101976.34;176559;1256;45967;-82
2024/01/08 17:08:10;;;;;;;35.00;19.80;;;;;;;-6.00;71.71;101981.34;177041;1256;46791;-82
2024/01/08 17:12:13;;;;;;;35.70;17.50;;;;;;;-6.05;71.62;101985.62;178388;1258;245229;-82
2024/01/08 17:16:17;;;;;;;29.40;18.20;;;;;;;-6.08;71.92;101995.09;177664;1257;46077;-82
2024/01/08 17:20:20;;;;;;;36.20;19.70;;;;;;;-6.03;72.68;101996.18;178647;1255;58251;-81
2024/01/08 17:24:23;;;;;;;45.20;23.40;;;;;;;-6.04;72.11;101995.48;177651;1256;46029;-82
2024/01/08 17:28:26;;;;;;;39.60;18.80;;;;;;;-6.13;71.50;101996.36;177937;1256;46108;-83
2024/01/08 17:32:30;;;;;;;32.30;23.00;;;;;;;-6.16;71.64;102003.95;179338;1258;46217;-82
2024/01/08 17:36:33;;;;;;;38.70;21.30;;;;;;;-6.19;71.67;102008.56;178150;1257;46004;-82
2024/01/08 17:40:36;;;;;;;34.30;18.30;;;;;;;-6.24;71.55;102005.03;178418;1257;58221;-83
2024/01/08 17:44:42;;;;;;;29.50;17.90;;;;;;;-6.27;72.39;102010.33;179466;1256;44080;-84
2024/01/08 17:48:46;;;;;;;52.50;23.90;;;;;;;-6.32;72.81;102014.23;179426;1256;45964;-84
2024/01/08 17:52:49;;;;;;;36.70;21.50;;;;;;;-6.37;72.73;102011.21;179007;1256;45987;-84
2024/01/08 17:56:55;;;;;;;49.80;28.60;;;;;;;-6.43;73.00;102017.16;178947;1256;46436;-83
2024/01/08 18:00:58;;;;;;;43.70;23.70;;;;;;;-6.51;72.68;102020.64;178045;1256;59144;-84
2024/01/08 18:05:01;;;;;;;42.30;26.50;;;;;;;-6.63;73.18;102027.70;179398;1256;46400;-84
2024/01/08 18:09:05;;;;;;;37.90;25.40;;;;;;;-6.68;73.88;102030.36;178861;1256;44159;-84
2024/01/08 18:13:08;;;;;;;45.70;24.30;;;;;;;-6.61;74.16;102038.25;179272;1256;46118;-84
2024/01/08 18:17:11;;;;;;;45.70;24.90;;;;;;;-6.52;74.57;102037.73;178641;1256;45983;-84